createdAt,value
2018-12-26T00:01:19.457Z,38.80
2018-12-26T00:03:47.852Z,36.80
2018-12-26T00:06:16.190Z,34.63
2018-12-26T00:08:44.637Z,35.87
2018-12-26T00:11:12.894Z,36.77
2018-12-26T00:13:41.102Z,36.40
2018-12-26T00:16:10.648Z,35.67
2018-12-26T00:18:38.960Z,34.77
2018-12-26T00:21:07.256Z,33.83
2018-12-26T00:23:35.535Z,35.17
2018-12-26T00:26:03.811Z,34.77
2018-12-26T00:28:32.255Z,33.97
2018-12-26T00:31:00.650Z,33.77
2018-12-26T00:33:29.053Z,35.97
2018-12-26T00:35:57.295Z,35.60
2018-12-26T00:38:25.552Z,34.60
2018-12-26T00:40:53.801Z,34.83
2018-12-26T00:43:22.091Z,35.80
2018-12-26T00:45:50.379Z,36.67
2018-12-26T00:48:18.626Z,38.73
2018-12-26T00:50:46.964Z,36.50
2018-12-26T00:53:15.245Z,34.73
2018-12-26T00:55:43.528Z,33.43
2018-12-26T00:58:11.777Z,34.43
2018-12-26T01:00:40.093Z,33.17
2018-12-26T01:03:08.391Z,36.17
2018-12-26T01:05:36.705Z,33.57
2018-12-26T01:08:05.151Z,34.80
2018-12-26T01:10:33.411Z,34.70
2018-12-26T01:13:01.695Z,34.00
2018-12-26T01:15:29.964Z,34.33
2018-12-26T01:17:58.323Z,32.77
2018-12-26T01:20:26.605Z,34.77
2018-12-26T01:25:23.504Z,32.33
2018-12-26T01:27:51.825Z,32.07
2018-12-26T01:30:20.081Z,30.73
2018-12-26T01:32:49.958Z,33.00
2018-12-26T01:35:18.397Z,32.23
2018-12-26T01:37:46.696Z,31.73
2018-12-26T01:40:15.000Z,32.40
2018-12-26T01:42:43.249Z,32.07
2018-12-26T01:45:11.550Z,34.20
2018-12-26T01:47:39.893Z,33.40
2018-12-26T01:50:08.153Z,31.93
2018-12-26T01:52:36.482Z,30.50
2018-12-26T01:55:05.505Z,31.80
2018-12-26T01:57:33.814Z,31.27
2018-12-26T02:00:02.069Z,30.90
2018-12-26T02:02:30.461Z,30.83
2018-12-26T02:04:58.738Z,31.57
2018-12-26T02:07:26.991Z,32.50
2018-12-26T02:09:55.268Z,34.07
2018-12-26T02:12:23.550Z,30.83
2018-12-26T02:14:51.809Z,32.20
2018-12-26T02:17:20.090Z,33.37
2018-12-26T02:19:48.354Z,32.10
2018-12-26T02:22:16.728Z,31.63
2018-12-26T02:24:44.984Z,30.07
2018-12-26T02:27:13.237Z,31.70
2018-12-26T02:29:41.501Z,32.20
2018-12-26T02:32:09.762Z,31.33
2018-12-26T02:34:38.057Z,34.07
2018-12-26T02:37:06.314Z,32.03
2018-12-26T02:39:34.638Z,32.17
2018-12-26T02:42:02.911Z,33.03
2018-12-26T02:44:31.237Z,34.63
2018-12-26T02:46:59.538Z,33.57
2018-12-26T02:49:27.831Z,33.57
2018-12-26T02:51:56.184Z,32.73
2018-12-26T02:54:24.443Z,31.40
2018-12-26T02:56:52.714Z,32.37
2018-12-26T02:59:21.087Z,31.67
2018-12-26T03:01:49.455Z,30.23
2018-12-26T03:04:17.650Z,31.03
2018-12-26T03:06:46.013Z,32.07
2018-12-26T03:09:14.284Z,33.57
2018-12-26T03:11:42.609Z,32.23
2018-12-26T03:14:10.886Z,29.97
2018-12-26T03:16:39.156Z,28.63
2018-12-26T03:19:07.451Z,30.27
2018-12-26T03:21:35.912Z,33.37
2018-12-26T03:24:04.274Z,31.23
2018-12-26T03:26:32.532Z,31.83
2018-12-26T03:29:00.802Z,33.47
2018-12-26T03:31:29.102Z,33.40
2018-12-26T03:33:57.390Z,34.27
2018-12-26T03:36:26.076Z,32.47
2018-12-26T03:38:56.007Z,33.60
2018-12-26T03:41:24.346Z,32.33
2018-12-26T03:43:55.098Z,31.40
2018-12-26T03:46:22.672Z,30.30
2018-12-26T03:48:50.962Z,30.00
2018-12-26T03:51:19.234Z,29.40
2018-12-26T03:53:47.503Z,31.80
2018-12-26T03:56:15.767Z,33.67
2018-12-26T03:58:44.032Z,31.50
2018-12-26T04:01:12.323Z,32.77
2018-12-26T04:03:40.589Z,34.50
2018-12-26T04:06:08.864Z,34.80
2018-12-26T04:08:37.230Z,32.63
2018-12-26T04:11:05.466Z,32.63
2018-12-26T04:13:34.024Z,32.40
2018-12-26T04:16:02.398Z,30.30
2018-12-26T04:18:30.819Z,31.53
2018-12-26T04:20:59.077Z,32.57
2018-12-26T04:23:27.408Z,33.63
2018-12-26T04:25:55.704Z,34.83
2018-12-26T04:28:23.946Z,33.30
2018-12-26T04:30:52.208Z,33.53
2018-12-26T04:33:20.484Z,33.03
2018-12-26T04:35:48.742Z,33.80
2018-12-26T04:38:17.054Z,33.43
2018-12-26T04:40:47.134Z,35.87
2018-12-26T04:43:15.426Z,34.33
2018-12-26T04:45:43.721Z,34.90
2018-12-26T04:48:12.001Z,35.07
2018-12-26T04:50:40.253Z,35.30
2018-12-26T04:53:08.548Z,34.53
2018-12-26T04:55:36.830Z,35.40
2018-12-26T04:58:05.079Z,34.67
2018-12-26T05:00:33.375Z,33.20
2018-12-26T05:03:01.658Z,32.60
2018-12-26T05:05:29.913Z,32.67
2018-12-26T05:07:58.171Z,32.37
2018-12-26T05:10:26.488Z,33.20
2018-12-26T05:12:54.747Z,33.37
2018-12-26T05:15:23.012Z,35.00
2018-12-26T05:17:51.309Z,36.50
2018-12-26T05:20:19.573Z,37.63
2018-12-26T05:22:47.833Z,37.93
2018-12-26T05:25:16.187Z,37.47
2018-12-26T05:27:44.508Z,39.30
2018-12-26T05:30:12.768Z,36.57
2018-12-26T05:32:41.096Z,38.33
2018-12-26T05:35:09.436Z,38.63
2018-12-26T05:37:37.687Z,37.73
2018-12-26T05:40:06.806Z,37.00
2018-12-26T05:42:35.109Z,38.13
2018-12-26T05:45:03.365Z,39.70
2018-12-26T05:47:31.685Z,42.80
2018-12-26T05:50:00.087Z,44.80
2018-12-26T05:52:28.490Z,43.33
2018-12-26T05:54:56.827Z,43.37
2018-12-26T05:57:25.198Z,41.17
2018-12-26T05:59:53.481Z,45.10
2018-12-26T06:02:21.810Z,42.63
2018-12-26T06:04:50.154Z,44.43
2018-12-26T06:07:18.418Z,43.47
2018-12-26T06:09:48.426Z,43.53
2018-12-26T06:12:16.716Z,44.60
2018-12-26T06:14:45.020Z,44.53
2018-12-26T06:17:13.339Z,43.87
2018-12-26T06:19:41.611Z,44.03
2018-12-26T06:22:09.862Z,44.70
2018-12-26T06:24:38.123Z,43.47
2018-12-26T06:27:06.471Z,47.43
2018-12-26T06:29:34.715Z,47.17
2018-12-26T06:32:03.066Z,43.43
2018-12-26T06:34:31.331Z,42.93
2018-12-26T06:36:59.621Z,44.03
2018-12-26T06:39:28.105Z,43.47
2018-12-26T06:41:56.491Z,45.20
2018-12-26T06:44:24.824Z,42.93
2018-12-26T06:46:53.479Z,45.10
2018-12-26T06:49:21.792Z,43.40
2018-12-26T06:51:50.332Z,43.37
2018-12-26T06:54:18.753Z,42.27
2018-12-26T06:56:47.181Z,42.37
2018-12-26T06:59:15.486Z,42.20
2018-12-26T07:01:43.736Z,40.70
2018-12-26T07:04:12.122Z,42.47
2018-12-26T07:06:40.582Z,41.00
2018-12-26T07:09:09.104Z,41.93
2018-12-26T07:11:37.429Z,40.97
2018-12-26T07:14:05.792Z,39.57
2018-12-26T07:16:34.424Z,40.03
2018-12-26T07:19:02.785Z,38.93
2018-12-26T07:21:32.735Z,37.77
2018-12-26T07:24:01.032Z,38.50
2018-12-26T07:26:29.389Z,38.50
2018-12-26T07:28:57.695Z,36.77
2018-12-26T07:31:26.090Z,36.73
2018-12-26T07:33:54.475Z,37.87
2018-12-26T07:36:22.816Z,36.70
2018-12-26T07:38:51.158Z,37.20
2018-12-26T07:41:19.568Z,37.57
2018-12-26T07:43:47.986Z,35.53
2018-12-26T07:46:16.344Z,36.17
2018-12-26T07:48:44.645Z,37.10
2018-12-26T07:51:13.059Z,36.83
2018-12-26T07:53:41.399Z,37.37
2018-12-26T07:56:09.719Z,37.93
2018-12-26T07:58:38.005Z,39.13
2018-12-26T08:01:06.423Z,38.07
2018-12-26T08:03:35.025Z,36.63
2018-12-26T08:06:03.813Z,38.23
2018-12-26T08:08:32.500Z,38.87
2018-12-26T08:11:01.126Z,34.53
2018-12-26T08:13:29.743Z,36.83
2018-12-26T08:15:58.515Z,35.83
2018-12-26T08:18:27.144Z,34.93
2018-12-26T08:20:55.549Z,35.23
2018-12-26T08:23:23.903Z,35.70
2018-12-26T08:25:52.295Z,35.10
2018-12-26T08:28:26.617Z,36.10
2018-12-26T08:30:50.829Z,37.53
2018-12-26T08:33:19.233Z,39.60
2018-12-26T08:35:47.547Z,41.97
2018-12-26T08:38:15.981Z,36.40
2018-12-26T08:40:44.405Z,39.17
2018-12-26T08:43:12.718Z,38.13
2018-12-26T08:45:41.158Z,40.33
2018-12-26T08:48:09.479Z,39.70
2018-12-26T08:50:37.922Z,41.07
2018-12-26T08:53:06.262Z,38.57
2018-12-26T08:55:34.557Z,41.13
2018-12-26T08:58:03.003Z,39.03
2018-12-26T09:00:31.266Z,42.30
2018-12-26T09:02:59.566Z,42.33
2018-12-26T09:05:27.876Z,37.40
2018-12-26T09:07:56.188Z,38.63
2018-12-26T09:10:24.557Z,47.97
2018-12-26T09:12:52.817Z,37.20
2018-12-26T09:15:21.115Z,33.77
2018-12-26T09:17:49.491Z,36.40
2018-12-26T09:20:17.876Z,36.03
2018-12-26T09:22:46.200Z,34.20
2018-12-26T09:25:14.484Z,34.37
2018-12-26T09:27:42.767Z,34.33
2018-12-26T09:30:11.135Z,33.00
2018-12-26T09:32:39.412Z,35.23
2018-12-26T09:35:09.007Z,33.77
2018-12-26T09:37:37.276Z,37.57
2018-12-26T09:40:08.155Z,34.50
2018-12-26T09:42:36.524Z,34.00
2018-12-26T09:45:07.066Z,33.00
2018-12-26T09:47:35.363Z,30.83
2018-12-26T09:50:04.000Z,29.83
2018-12-26T09:52:32.283Z,30.30
2018-12-26T09:55:00.586Z,33.07
2018-12-26T09:57:28.863Z,34.50
2018-12-26T09:59:57.163Z,32.60
2018-12-26T10:02:25.421Z,30.73
2018-12-26T10:04:53.772Z,33.67
2018-12-26T10:07:22.072Z,35.27
2018-12-26T10:09:50.369Z,36.83
2018-12-26T10:12:18.751Z,38.50
2018-12-26T10:14:47.091Z,38.40
2018-12-26T10:17:15.365Z,37.97
2018-12-26T10:19:43.675Z,39.20
2018-12-26T10:22:11.959Z,34.50
2018-12-26T10:24:40.367Z,32.27
2018-12-26T10:27:08.727Z,34.97
2018-12-26T10:29:37.027Z,34.13
2018-12-26T10:32:05.334Z,36.60
2018-12-26T10:34:33.591Z,38.17
2018-12-26T10:37:01.850Z,39.43
2018-12-26T10:39:30.143Z,38.43
2018-12-26T10:41:58.437Z,38.60
2018-12-26T10:44:26.738Z,38.50
2018-12-26T10:46:55.016Z,36.63
2018-12-26T10:49:23.309Z,33.53
2018-12-26T10:51:51.572Z,34.73
2018-12-26T10:54:19.843Z,34.73
2018-12-26T10:56:48.193Z,36.30
2018-12-26T10:59:16.499Z,32.97
2018-12-26T11:01:44.781Z,35.77
2018-12-26T11:04:13.096Z,39.17
2018-12-26T11:06:41.354Z,35.37
2018-12-26T11:09:09.728Z,33.07
2018-12-26T11:11:38.015Z,33.50
2018-12-26T11:14:06.370Z,35.40
2018-12-26T11:16:34.631Z,39.20
2018-12-26T11:19:03.003Z,31.57
2018-12-26T11:21:31.513Z,31.83
2018-12-26T11:23:59.797Z,33.53
2018-12-26T11:26:28.069Z,33.13
2018-12-26T11:28:56.334Z,33.07
2018-12-26T11:31:24.714Z,31.87
2018-12-26T11:33:53.100Z,31.93
2018-12-26T11:36:21.493Z,33.23
2018-12-26T11:38:49.794Z,32.20
2018-12-26T11:41:18.097Z,31.17
2018-12-26T11:43:46.378Z,33.23
2018-12-26T11:46:14.756Z,35.13
2018-12-26T11:48:43.149Z,36.43
2018-12-26T11:51:11.415Z,34.37
2018-12-26T11:53:39.727Z,34.50
2018-12-26T11:56:08.053Z,34.43
2018-12-26T11:58:36.424Z,33.70
2018-12-26T12:01:04.756Z,31.87
2018-12-26T12:03:33.067Z,35.23
2018-12-26T12:06:01.562Z,33.97
2018-12-26T12:08:29.903Z,31.80
2018-12-26T12:10:58.219Z,33.60
2018-12-26T12:13:26.540Z,34.00
2018-12-26T12:15:54.867Z,34.10
2018-12-26T12:18:23.243Z,35.30
2018-12-26T12:20:51.579Z,36.10
2018-12-26T12:23:19.923Z,35.20
2018-12-26T12:25:48.403Z,35.40
2018-12-26T12:28:16.862Z,33.10
2018-12-26T12:30:45.295Z,34.83
2018-12-26T12:33:13.627Z,33.93
2018-12-26T12:35:42.041Z,33.67
2018-12-26T12:38:10.493Z,32.53
2018-12-26T12:40:38.822Z,31.53
2018-12-26T12:43:08.915Z,30.90
2018-12-26T12:45:37.252Z,31.73
2018-12-26T12:48:05.728Z,32.50
2018-12-26T12:50:34.081Z,32.37
2018-12-26T12:53:02.358Z,31.33
2018-12-26T12:55:30.679Z,29.07
2018-12-26T12:57:59.079Z,29.20
2018-12-26T13:00:27.390Z,31.03
2018-12-26T13:03:00.326Z,29.77
2018-12-26T13:05:25.983Z,28.47
2018-12-26T13:07:54.379Z,28.00
2018-12-26T13:10:23.763Z,27.70
2018-12-26T13:12:52.229Z,27.10
2018-12-26T13:15:20.659Z,25.93
2018-12-26T13:17:48.977Z,26.00
2018-12-26T13:20:17.416Z,29.40
2018-12-26T13:22:45.836Z,30.23
2018-12-26T13:25:14.209Z,28.67
2018-12-26T13:27:42.529Z,29.10
2018-12-26T13:30:11.079Z,29.93
2018-12-26T13:32:39.556Z,29.43
2018-12-26T13:35:07.938Z,29.50
2018-12-26T13:37:42.687Z,29.93
2018-12-26T13:40:11.043Z,27.70
2018-12-26T13:42:39.366Z,27.73
2018-12-26T13:45:07.835Z,26.30
2018-12-26T13:47:36.363Z,29.33
2018-12-26T13:50:05.574Z,29.20
2018-12-26T13:52:34.941Z,28.63
2018-12-26T13:55:03.357Z,26.90
2018-12-26T13:57:31.693Z,28.77
2018-12-26T14:00:02.392Z,30.73
2018-12-26T14:02:29.990Z,31.80
2018-12-26T14:04:58.510Z,31.43
2018-12-26T14:07:26.733Z,30.77
2018-12-26T14:09:55.041Z,30.67
2018-12-26T14:12:23.455Z,28.07
2018-12-26T14:14:51.700Z,30.13
2018-12-26T14:17:20.147Z,34.13
2018-12-26T14:19:48.507Z,34.23
2018-12-26T14:22:17.057Z,31.87
2018-12-26T14:24:45.399Z,33.03
2018-12-26T14:27:13.763Z,31.30
2018-12-26T14:29:42.570Z,29.97
2018-12-26T14:32:11.121Z,29.53
2018-12-26T14:34:39.538Z,31.37
2018-12-26T14:37:07.904Z,29.13
2018-12-26T14:39:36.235Z,31.33
2018-12-26T14:42:04.614Z,30.97
2018-12-26T14:44:33.002Z,31.43
2018-12-26T14:47:01.453Z,32.23
2018-12-26T14:49:29.995Z,32.07
2018-12-26T14:51:59.289Z,32.13
2018-12-26T14:54:27.642Z,30.70
2018-12-26T14:56:56.160Z,30.57
2018-12-26T14:59:24.482Z,31.23
2018-12-26T15:01:52.883Z,32.27
2018-12-26T15:04:21.278Z,31.73
2018-12-26T15:06:49.782Z,31.00
2018-12-26T15:09:18.174Z,29.63
2018-12-26T15:11:46.546Z,32.80
2018-12-26T15:14:15.017Z,32.10
2018-12-26T15:16:43.471Z,31.20
2018-12-26T15:19:18.561Z,32.33
2018-12-26T15:21:46.884Z,32.47
2018-12-26T15:24:15.269Z,32.17
2018-12-26T15:26:43.571Z,32.57
2018-12-26T15:29:11.905Z,38.27
2018-12-26T15:31:40.297Z,36.27
2018-12-26T15:34:08.600Z,40.33
2018-12-26T15:36:36.976Z,39.13
2018-12-26T15:39:07.964Z,40.90
2018-12-26T15:41:36.247Z,36.30
2018-12-26T15:44:04.500Z,34.67
2018-12-26T15:46:32.753Z,38.60
2018-12-26T15:49:01.010Z,36.27
2018-12-26T15:51:29.269Z,36.83
2018-12-26T15:53:57.548Z,35.67
2018-12-26T15:56:25.803Z,37.37
2018-12-26T15:58:54.125Z,40.00
2018-12-26T16:01:23.369Z,38.33
2018-12-26T16:03:51.628Z,38.40
2018-12-26T16:06:19.899Z,37.83
2018-12-26T16:08:48.153Z,36.93
2018-12-26T16:11:16.411Z,36.07
2018-12-26T16:13:44.661Z,38.63
2018-12-26T16:16:12.921Z,42.27
2018-12-26T16:18:41.198Z,40.43
2018-12-26T16:21:09.456Z,39.50
2018-12-26T16:23:37.703Z,37.40
2018-12-26T16:26:05.978Z,38.27
2018-12-26T16:28:34.229Z,37.13
2018-12-26T16:31:02.512Z,35.87
2018-12-26T16:33:30.765Z,36.37
2018-12-26T16:35:59.018Z,38.33
2018-12-26T16:38:27.267Z,38.23
2018-12-26T16:40:55.533Z,37.90
2018-12-26T16:43:23.814Z,38.83
2018-12-26T16:45:52.062Z,38.37
2018-12-26T16:48:20.347Z,40.57
2018-12-26T16:50:48.603Z,37.73
2018-12-26T16:53:16.854Z,39.47
2018-12-26T16:55:45.151Z,35.33
2018-12-26T16:58:13.367Z,35.13
2018-12-26T17:00:41.643Z,34.37
2018-12-26T17:03:09.899Z,37.33
2018-12-26T17:05:38.144Z,36.57
2018-12-26T17:08:06.411Z,36.00
2018-12-26T17:10:34.795Z,37.10
2018-12-26T17:13:03.060Z,37.60
2018-12-26T17:15:31.376Z,35.07
2018-12-26T17:17:59.656Z,37.00
2018-12-26T17:20:27.909Z,37.47
2018-12-26T17:22:56.172Z,36.63
2018-12-26T17:25:24.418Z,34.27
2018-12-26T17:27:52.670Z,35.70
2018-12-26T17:30:20.979Z,36.63
2018-12-26T17:32:49.235Z,36.63
2018-12-26T17:35:17.487Z,39.47
2018-12-26T17:37:46.680Z,35.83
2018-12-26T17:40:14.947Z,39.03
2018-12-26T17:42:43.243Z,39.93
2018-12-26T17:45:12.358Z,37.53
2018-12-26T17:47:40.613Z,37.23
2018-12-26T17:50:40.801Z,38.07
2018-12-26T17:53:12.292Z,39.43
2018-12-26T17:56:02.062Z,40.40
2018-12-26T17:58:33.577Z,39.43
2018-12-26T18:01:12.663Z,39.20
2018-12-26T18:03:35.090Z,39.77
2018-12-26T18:06:03.333Z,42.63
2018-12-26T18:08:31.615Z,42.00
2018-12-26T18:10:59.930Z,40.37
2018-12-26T18:13:28.174Z,39.10
2018-12-26T18:15:56.426Z,41.93
2018-12-26T18:18:24.677Z,39.07
2018-12-26T18:20:52.959Z,40.00
2018-12-26T18:23:21.293Z,41.10
2018-12-26T18:25:49.542Z,41.60
2018-12-26T18:28:17.796Z,42.27
2018-12-26T18:30:46.050Z,40.97
2018-12-26T18:33:14.326Z,40.57
2018-12-26T18:35:42.581Z,39.40
2018-12-26T18:38:10.857Z,39.13
2018-12-26T18:40:39.108Z,43.17
2018-12-26T18:43:07.368Z,40.17
2018-12-26T18:45:35.625Z,40.17
2018-12-26T18:48:03.878Z,38.63
2018-12-26T18:50:32.155Z,40.53
2018-12-26T18:53:00.404Z,40.80
2018-12-26T18:55:28.660Z,40.10
2018-12-26T18:57:56.909Z,40.47
2018-12-26T19:00:25.156Z,40.60
2018-12-26T19:02:53.442Z,42.10
2018-12-26T19:05:21.693Z,40.80
2018-12-26T19:07:49.953Z,40.37
2018-12-26T19:10:18.490Z,41.03
2018-12-26T19:12:46.736Z,39.90
2018-12-26T19:15:16.050Z,40.60
2018-12-26T19:17:45.211Z,41.33
2018-12-26T19:20:13.885Z,40.20
2018-12-26T19:22:43.793Z,43.67
2018-12-26T19:25:27.282Z,43.30
2018-12-26T19:27:55.573Z,42.80
2018-12-26T19:30:24.021Z,42.13
2018-12-26T19:32:52.302Z,41.90
2018-12-26T19:35:21.947Z,40.93
2018-12-26T19:37:50.318Z,41.77
2018-12-26T19:40:18.576Z,41.70
2018-12-26T19:42:47.509Z,42.67
2018-12-26T19:45:17.966Z,43.20
2018-12-26T19:47:46.479Z,42.43
2018-12-26T19:50:14.817Z,40.60
2018-12-26T19:52:43.197Z,39.60
2018-12-26T19:55:13.114Z,40.20
2018-12-26T19:57:41.434Z,42.57
2018-12-26T20:00:10.830Z,41.80
2018-12-26T20:02:39.157Z,41.83
2018-12-26T20:05:09.193Z,39.73
2018-12-26T20:07:39.314Z,39.40
2018-12-26T20:10:09.788Z,40.63
2018-12-26T20:12:38.109Z,42.00
2018-12-26T20:15:07.504Z,40.00
2018-12-26T20:17:35.905Z,37.87
2018-12-26T20:20:06.118Z,39.30
2018-12-26T20:22:34.483Z,39.27
2018-12-26T20:25:02.738Z,41.37
2018-12-26T20:27:31.025Z,39.43
2018-12-26T20:29:59.345Z,39.93
2018-12-26T20:32:27.601Z,40.40
2018-12-26T20:34:56.098Z,42.63
2018-12-26T20:37:24.396Z,43.43
2018-12-26T20:39:52.778Z,40.97
2018-12-26T20:42:21.079Z,42.77
2018-12-26T20:44:49.407Z,38.23
2018-12-26T20:47:17.687Z,38.67
2018-12-26T20:49:46.039Z,40.43
2018-12-26T20:52:14.379Z,41.43
2018-12-26T20:54:42.720Z,41.67
2018-12-26T20:57:11.164Z,40.73
2018-12-26T20:59:39.453Z,41.93
2018-12-26T21:02:07.720Z,42.17
2018-12-26T21:04:35.964Z,39.97
2018-12-26T21:07:04.236Z,42.23
2018-12-26T21:09:32.566Z,44.10
2018-12-26T21:12:00.919Z,44.97
2018-12-26T21:14:29.288Z,44.17
2018-12-26T21:16:57.600Z,43.30
2018-12-26T21:19:25.856Z,45.20
2018-12-26T21:21:54.131Z,46.77
2018-12-26T21:24:22.404Z,44.50
2018-12-26T21:26:50.665Z,42.03
2018-12-26T21:29:19.014Z,42.20
2018-12-26T21:31:47.271Z,42.90
2018-12-26T21:34:15.527Z,41.23
2018-12-26T21:36:43.924Z,40.73
2018-12-26T21:39:12.204Z,41.70
2018-12-26T21:41:40.519Z,41.60
2018-12-26T21:44:08.829Z,42.27
2018-12-26T21:46:37.293Z,41.53
2018-12-26T21:49:05.570Z,41.90
2018-12-26T21:51:33.819Z,41.23
2018-12-26T21:54:02.162Z,38.77
2018-12-26T21:56:30.525Z,38.57
2018-12-26T21:59:01.797Z,42.47
2018-12-26T22:01:37.079Z,41.90
2018-12-26T22:04:06.973Z,43.07
2018-12-26T22:06:35.364Z,39.87
2018-12-26T22:09:04.281Z,38.93
2018-12-26T22:11:32.524Z,40.87
2018-12-26T22:14:00.875Z,39.60
2018-12-26T22:16:29.146Z,39.33
2018-12-26T22:18:59.473Z,37.37
2018-12-26T22:21:27.699Z,37.37
2018-12-26T22:23:55.962Z,36.40
2018-12-26T22:26:24.222Z,37.47
2018-12-26T22:28:52.487Z,37.60
2018-12-26T22:31:20.863Z,38.83
2018-12-26T22:33:49.111Z,39.20
2018-12-26T22:36:17.456Z,37.90
2018-12-26T22:38:45.879Z,37.40
2018-12-26T22:41:14.173Z,38.40
2018-12-26T22:43:42.440Z,38.20
2018-12-26T22:46:10.713Z,38.83
2018-12-26T22:48:38.996Z,40.67
2018-12-26T22:51:08.895Z,38.20
2018-12-26T22:53:37.226Z,39.53
2018-12-26T22:56:05.529Z,38.30
2018-12-26T22:58:33.936Z,38.00
2018-12-26T23:01:02.262Z,38.77
2018-12-26T23:03:30.714Z,38.17
2018-12-26T23:05:59.223Z,36.03
2018-12-26T23:08:28.485Z,38.40
2018-12-26T23:10:56.879Z,41.63
2018-12-26T23:13:25.155Z,39.77
2018-12-26T23:15:53.516Z,40.70
2018-12-26T23:18:22.815Z,38.60
2018-12-26T23:20:51.162Z,39.97
2018-12-26T23:23:19.409Z,39.83
2018-12-26T23:25:47.689Z,41.93
2018-12-26T23:28:16.029Z,41.90
2018-12-26T23:30:44.293Z,40.03
2018-12-26T23:33:12.561Z,41.73
2018-12-26T23:35:40.896Z,37.90
2018-12-26T23:38:09.263Z,38.37
2018-12-26T23:40:37.522Z,41.53
2018-12-26T23:43:05.845Z,41.47
2018-12-26T23:45:34.141Z,40.63
2018-12-26T23:48:02.484Z,39.80
2018-12-26T23:50:30.796Z,40.70
2018-12-26T23:52:59.153Z,42.03
2018-12-26T23:55:27.408Z,43.53
2018-12-26T23:57:55.717Z,37.93
